Time;durP1;ratioP1;P1;durP2;ratioP2;P2;SDS_P1;SDS_P2;PMS_P1;PMS_P2;Temp;Humidity;BMP_temperature;BMP_pressure;BME280_temperature;BME280_humidity;BME280_pressure;Samples;Min_cycle;Max_cycle;Signal;HPM_P1;HPM_P2
2021/03/19 00:00:10;;;;;;;1.17;1.10;;;3.50;99.90;;;;;;5003995;28;20690;-90
2021/03/19 00:02:35;;;;;;;0.50;0.50;;;3.40;99.90;;;;;;4988218;28;20223;-89
2021/03/19 00:05:01;;;;;;;0.30;0.30;;;3.40;99.90;;;;;;4988686;28;20190;-90
2021/03/19 00:07:38;;;;;;;1.43;0.70;;;3.40;99.90;;;;;;4990290;28;20191;-90
2021/03/19 00:10:04;;;;;;;2.20;0.37;;;3.40;99.90;;;;;;5004773;28;20789;-90
2021/03/19 00:12:30;;;;;;;2.10;1.33;;;3.50;99.90;;;;;;4987873;28;20688;-90
2021/03/19 00:14:56;;;;;;;0.97;0.40;;;3.50;99.90;;;;;;4972009;28;20210;-90
2021/03/19 00:17:22;;;;;;;0.50;0.50;;;3.50;99.90;;;;;;4986876;28;20236;-90
2021/03/19 00:19:47;;;;;;;1.40;1.13;;;3.50;99.90;;;;;;4972771;28;20186;-90
2021/03/19 00:22:13;;;;;;;0.20;0.20;;;3.50;99.90;;;;;;4984186;28;20242;-90
2021/03/19 00:24:39;;;;;;;0.27;0.27;;;3.50;99.90;;;;;;4971187;28;20718;-88
2021/03/19 00:27:05;;;;;;;0.50;0.43;;;3.60;99.90;;;;;;4967815;28;20220;-90
2021/03/19 00:29:30;;;;;;;2.37;0.73;;;3.60;99.90;;;;;;4984483;28;20220;-89
2021/03/19 00:31:56;;;;;;;2.73;0.80;;;3.60;99.90;;;;;;4968814;28;20184;-90
2021/03/19 00:34:22;;;;;;;1.33;1.07;;;3.50;99.90;;;;;;4968662;28;20243;-90
2021/03/19 00:36:47;;;;;;;0.60;0.60;;;3.50;99.90;;;;;;5000546;28;20242;-89
2021/03/19 00:39:13;;;;;;;0.87;0.40;;;3.40;99.90;;;;;;5003843;28;20679;-90
2021/03/19 00:41:39;;;;;;;0.90;0.90;;;3.40;99.90;;;;;;4987418;28;20379;-90
2021/03/19 00:44:05;;;;;;;0.40;0.40;;;3.40;99.90;;;;;;4987381;28;20571;-90
2021/03/19 00:46:31;;;;;;;1.37;1.27;;;3.50;99.90;;;;;;4989178;28;20249;-90
2021/03/19 00:48:57;;;;;;;0.70;0.57;;;3.50;99.90;;;;;;5003386;28;20611;-90
2021/03/19 00:51:22;;;;;;;0.47;0.47;;;3.40;99.90;;;;;;4987362;28;20223;-90
2021/03/19 00:53:48;;;;;;;1.17;1.17;;;3.40;99.90;;;;;;4971405;28;21221;-90
2021/03/19 00:56:14;;;;;;;0.40;0.40;;;3.40;99.90;;;;;;4987941;28;20211;-90
2021/03/19 00:58:39;;;;;;;1.50;1.23;;;3.50;99.90;;;;;;4972955;28;20183;-90
2021/03/19 01:01:05;;;;;;;1.30;1.20;;;3.40;99.90;;;;;;4987326;28;20215;-90
2021/03/19 01:03:31;;;;;;;1.20;0.83;;;3.40;99.90;;;;;;4968097;28;20305;-90
2021/03/19 01:05:59;;;;;;;0.63;0.63;;;3.30;99.90;;;;;;4995606;28;20226;-89
2021/03/19 01:08:25;;;;;;;0.90;0.90;;;3.30;99.90;;;;;;4984567;28;20219;-89
2021/03/19 01:10:56;;;;;;;0.60;0.60;;;3.30;99.90;;;;;;4969540;28;20199;-89
2021/03/19 01:13:23;;;;;;;0.60;0.60;;;3.30;99.90;;;;;;5003612;28;20214;-90
2021/03/19 01:15:51;;;;;;;0.77;0.47;;;3.30;99.90;;;;;;5000422;28;20718;-90
2021/03/19 01:18:19;;;;;;;1.10;0.87;;;3.30;99.90;;;;;;4994048;28;20250;-89
2021/03/19 01:20:46;;;;;;;0.63;0.63;;;3.30;99.90;;;;;;4987102;28;20219;-90
2021/03/19 01:23:12;;;;;;;0.37;0.37;;;3.40;99.90;;;;;;4987687;28;20789;-91
2021/03/19 01:25:39;;;;;;;0.90;0.90;;;3.40;99.90;;;;;;5006614;28;20722;-89
2021/03/19 01:28:05;;;;;;;1.37;1.33;;;3.40;99.90;;;;;;5005104;28;20207;-89
2021/03/19 01:30:35;;;;;;;0.60;0.60;;;3.50;99.90;;;;;;4990609;28;20230;-90
2021/03/19 01:33:01;;;;;;;0.60;0.60;;;3.40;99.90;;;;;;5022615;28;20207;-90
2021/03/19 01:35:30;;;;;;;3.20;1.10;;;3.40;99.90;;;;;;4990818;28;20273;-91
2021/03/19 01:37:56;;;;;;;0.60;0.60;;;3.40;99.90;;;;;;5008014;28;20207;-90
2021/03/19 01:40:29;;;;;;;0.70;0.70;;;3.40;99.90;;;;;;4975030;28;20222;-90
2021/03/19 01:43:14;;;;;;;0.83;0.80;;;3.40;99.90;;;;;;5007078;28;20707;-90
2021/03/19 01:45:58;;;;;;;0.40;0.40;;;3.30;99.90;;;;;;5006417;28;20215;-90
2021/03/19 01:49:02;;;;;;;0.60;0.60;;;3.20;99.90;;;;;;5006792;28;20227;-90
2021/03/19 01:52:05;;;;;;;0.33;0.33;;;3.20;99.90;;;;;;5006639;28;20634;-89
2021/03/19 01:55:13;;;;;;;0.30;0.27;;;3.20;99.90;;;;;;5006545;28;20284;-91
2021/03/19 01:58:16;;;;;;;11.27;0.80;;;3.10;99.90;;;;;;4953356;28;20286;-90
2021/03/19 02:01:20;;;;;;;0.47;0.47;;;3.10;99.90;;;;;;5000731;28;20306;-90
2021/03/19 02:04:23;;;;;;;0.30;0.30;;;3.10;99.90;;;;;;5007181;28;20230;-90
2021/03/19 02:07:26;;;;;;;0.70;0.70;;;3.10;99.90;;;;;;5006657;28;20215;-90
2021/03/19 02:10:29;;;;;;;0.73;0.73;;;3.10;99.90;;;;;;5006165;28;20259;-90
2021/03/19 02:13:33;;;;;;;0.20;0.20;;;3.00;99.90;;;;;;4990678;28;20207;-90
2021/03/19 02:16:36;;;;;;;0.70;0.70;;;3.00;99.90;;;;;;5002240;28;20353;-90
2021/03/19 02:19:40;;;;;;;0.60;0.60;;;3.00;99.90;;;;;;5006107;28;20532;-90
2021/03/19 02:22:43;;;;;;;0.63;0.50;;;3.00;99.90;;;;;;5005416;28;20251;-89
2021/03/19 02:25:47;;;;;;;0.57;0.40;;;3.00;99.90;;;;;;4988258;28;21342;-90
2021/03/19 02:28:50;;;;;;;0.40;0.40;;;3.00;99.90;;;;;;5006189;28;20213;-90
2021/03/19 02:31:15;;;;;;;0.83;0.83;;;3.00;99.90;;;;;;5005718;28;20214;-90
2021/03/19 02:33:55;;;;;;;0.50;0.50;;;3.00;99.90;;;;;;4990936;28;20716;-90
2021/03/19 02:36:26;;;;;;;0.70;0.70;;;3.00;99.90;;;;;;4997104;28;20695;-89
2021/03/19 02:38:52;;;;;;;0.30;0.30;;;3.00;99.90;;;;;;5004877;28;20302;-90
2021/03/19 02:41:19;;;;;;;1.13;1.13;;;2.90;99.90;;;;;;4989514;28;20365;-89
2021/03/19 02:43:45;;;;;;;0.23;0.23;;;2.80;99.90;;;;;;4991300;28;20201;-89
2021/03/19 02:46:11;;;;;;;9.43;1.37;;;2.80;99.90;;;;;;4989392;28;20208;-89
2021/03/19 02:48:37;;;;;;;1.13;1.03;;;2.80;99.90;;;;;;5005345;28;20718;-89
2021/03/19 02:51:04;;;;;;;1.63;1.53;;;2.80;99.90;;;;;;4989083;28;20718;-90
2021/03/19 02:53:31;;;;;;;0.33;0.33;;;2.80;99.90;;;;;;4989057;28;20293;-89
2021/03/19 02:56:01;;;;;;;0.70;0.70;;;2.80;99.90;;;;;;4990614;28;20282;-89
2021/03/19 02:58:27;;;;;;;0.37;0.37;;;2.70;99.90;;;;;;5005822;28;20227;-90
2021/03/19 03:00:54;;;;;;;0.57;0.57;;;2.80;99.90;;;;;;5006111;28;20226;-89
2021/03/19 03:03:20;;;;;;;0.80;0.80;;;2.80;99.90;;;;;;4994418;28;20212;-91
2021/03/19 03:05:46;;;;;;;0.50;0.50;;;2.80;99.90;;;;;;4992263;28;20207;-90
2021/03/19 03:08:14;;;;;;;9.00;1.03;;;2.80;99.90;;;;;;4989060;28;20630;-90
2021/03/19 03:10:41;;;;;;;0.77;0.73;;;2.80;99.90;;;;;;5007324;28;20215;-89
2021/03/19 03:13:08;;;;;;;0.30;0.30;;;2.80;99.90;;;;;;4988980;28;21355;-89
2021/03/19 03:15:34;;;;;;;0.70;0.70;;;2.80;99.90;;;;;;4988805;28;20214;-90
2021/03/19 03:18:00;;;;;;;0.73;0.73;;;2.90;99.90;;;;;;5004534;28;20231;-89
2021/03/19 03:20:32;;;;;;;1.20;0.67;;;2.90;99.90;;;;;;5005179;28;20227;-90
2021/03/19 03:22:58;;;;;;;1.70;1.07;;;2.90;99.90;;;;;;5005747;28;20214;-87
2021/03/19 03:25:24;;;;;;;0.53;0.53;;;2.90;99.90;;;;;;4980244;28;20262;-89
2021/03/19 03:27:51;;;;;;;0.30;0.30;;;2.90;99.90;;;;;;5024304;28;20325;-90
2021/03/19 03:30:28;;;;;;;0.30;0.30;;;2.90;99.90;;;;;;5005924;28;20269;-89
2021/03/19 03:32:54;;;;;;;2.20;0.80;;;2.90;99.90;;;;;;5023455;28;20226;-90
2021/03/19 03:35:22;;;;;;;1.33;1.27;;;3.00;99.90;;;;;;5024168;28;20214;-90
2021/03/19 03:37:48;;;;;;;0.30;0.30;;;3.00;99.90;;;;;;5008720;28;20575;-89
2021/03/19 03:40:20;;;;;;;1.43;1.33;;;3.10;99.90;;;;;;5007851;28;20706;-89
2021/03/19 03:42:46;;;;;;;0.30;0.30;;;3.10;99.90;;;;;;5041356;28;20293;-90
2021/03/19 03:45:13;;;;;;;0.60;0.60;;;3.20;99.90;;;;;;5007786;28;20901;-89
2021/03/19 03:47:39;;;;;;;0.90;0.90;;;3.30;99.90;;;;;;5008193;28;20207;-90
2021/03/19 03:50:08;;;;;;;0.20;0.20;;;3.30;99.90;;;;;;5023747;28;20273;-89
2021/03/19 03:52:34;;;;;;;5.50;1.90;;;3.30;99.90;;;;;;5025461;28;20187;-89
2021/03/19 03:55:00;;;;;;;0.60;0.60;;;3.30;99.90;;;;;;5008172;28;20202;-90
2021/03/19 03:57:25;;;;;;;0.43;0.43;;;3.30;99.90;;;;;;5014025;28;20222;-89
2021/03/19 03:59:51;;;;;;;0.40;0.40;;;3.20;99.90;;;;;;4981465;28;20303;-90
2021/03/19 04:02:24;;;;;;;0.30;0.30;;;3.20;99.90;;;;;;4980061;28;20203;-90
2021/03/19 04:04:50;;;;;;;0.67;0.57;;;3.20;99.90;;;;;;5025692;28;20804;-89
2021/03/19 04:07:17;;;;;;;0.37;0.37;;;3.20;99.90;;;;;;5023287;28;20207;-89
2021/03/19 04:09:42;;;;;;;1.33;0.70;;;3.10;99.90;;;;;;5006648;28;20246;-89
2021/03/19 04:12:10;;;;;;;0.90;0.90;;;3.20;99.90;;;;;;5015153;28;20237;-89
2021/03/19 04:14:37;;;;;;;7.03;0.67;;;3.20;99.90;;;;;;4988103;28;20230;-89
2021/03/19 04:17:10;;;;;;;0.57;0.57;;;3.20;99.90;;;;;;5021145;28;20309;-90
2021/03/19 04:19:36;;;;;;;0.63;0.50;;;3.20;99.90;;;;;;5024898;28;20627;-90
2021/03/19 04:22:03;;;;;;;0.53;0.53;;;3.20;99.90;;;;;;5023994;28;20536;-89
2021/03/19 04:24:29;;;;;;;3.20;1.70;;;3.20;99.90;;;;;;5009188;28;20252;-89
2021/03/19 04:26:55;;;;;;;0.53;0.53;;;3.20;99.90;;;;;;5003066;28;20253;-90
2021/03/19 04:29:21;;;;;;;0.60;0.60;;;3.10;99.90;;;;;;4993954;28;20272;-90
2021/03/19 04:31:47;;;;;;;0.23;0.23;;;3.10;99.90;;;;;;5027127;28;20199;-90
2021/03/19 04:34:13;;;;;;;0.90;0.90;;;3.00;99.90;;;;;;5009938;28;20241;-90
2021/03/19 04:36:44;;;;;;;2.93;0.87;;;3.00;99.90;;;;;;5026308;28;20280;-90
2021/03/19 04:39:16;;;;;;;0.50;0.50;;;3.10;99.90;;;;;;5017099;28;20229;-90
2021/03/19 04:41:49;;;;;;;0.60;0.60;;;3.10;99.90;;;;;;5006835;28;20313;-89
2021/03/19 04:44:15;;;;;;;0.43;0.43;;;3.00;99.90;;;;;;5009463;28;20186;-90
2021/03/19 04:46:41;;;;;;;0.63;0.63;;;3.00;99.90;;;;;;5011936;28;20201;-90
2021/03/19 04:49:07;;;;;;;0.47;0.43;;;3.00;99.90;;;;;;5010640;28;20225;-89
2021/03/19 04:51:33;;;;;;;0.60;0.40;;;3.00;99.90;;;;;;5026188;28;20229;-90
2021/03/19 04:53:59;;;;;;;8.80;1.67;;;3.00;99.90;;;;;;5007420;28;20206;-90
2021/03/19 04:56:25;;;;;;;0.80;0.80;;;3.00;99.90;;;;;;4978638;28;20233;-90
2021/03/19 04:58:51;;;;;;;0.30;0.30;;;3.00;99.90;;;;;;5011835;28;20190;-88
2021/03/19 05:01:18;;;;;;;1.07;0.97;;;3.00;99.90;;;;;;4991828;28;20268;-89
2021/03/19 05:03:44;;;;;;;1.37;0.73;;;3.00;99.90;;;;;;5042193;28;20205;-90
2021/03/19 05:06:10;;;;;;;1.23;0.50;;;3.00;99.90;;;;;;4999814;28;20789;-90
2021/03/19 05:08:36;;;;;;;1.17;0.87;;;3.00;99.90;;;;;;4999576;28;20218;-90
2021/03/19 05:11:03;;;;;;;1.27;0.97;;;3.00;99.90;;;;;;5013595;28;20189;-90
2021/03/19 05:13:28;;;;;;;1.67;1.57;;;3.00;99.90;;;;;;5047781;28;20630;-89
2021/03/19 05:15:54;;;;;;;1.20;0.93;;;3.00;99.90;;;;;;4998036;28;20267;-90
2021/03/19 05:18:20;;;;;;;3.83;1.30;;;3.00;99.90;;;;;;5029708;28;20328;-90
2021/03/19 05:20:46;;;;;;;0.60;0.60;;;3.00;99.90;;;;;;4998303;28;20220;-90
2021/03/19 05:23:24;;;;;;;0.93;0.70;;;3.00;99.90;;;;;;5030202;28;20189;-90
2021/03/19 05:25:50;;;;;;;0.30;0.30;;;3.00;99.90;;;;;;5031046;28;20232;-91
2021/03/19 05:28:17;;;;;;;0.50;0.50;;;3.00;99.90;;;;;;4997328;28;20618;-90
2021/03/19 05:30:43;;;;;;;1.00;0.90;;;3.00;99.90;;;;;;5046886;28;20218;-90
2021/03/19 05:33:09;;;;;;;4.73;1.50;;;3.00;99.90;;;;;;5013258;28;20236;-89
2021/03/19 05:35:35;;;;;;;1.10;1.10;;;3.00;99.90;;;;;;5026799;28;20218;-90
2021/03/19 05:38:02;;;;;;;1.27;1.27;;;2.90;99.90;;;;;;4995024;28;20207;-90
2021/03/19 05:40:39;;;;;;;0.97;0.97;;;3.00;99.90;;;;;;5048411;28;20182;-90
2021/03/19 05:43:39;;;;;;;0.70;0.70;;;2.90;99.90;;;;;;5029882;28;20256;-91
2021/03/19 05:46:08;;;;;;;1.37;1.37;;;2.90;99.90;;;;;;4993239;28;20757;-90
2021/03/19 05:48:41;;;;;;;0.47;0.47;;;2.90;99.90;;;;;;5010096;28;20211;-91
2021/03/19 05:51:19;;;;;;;0.60;0.60;;;2.90;99.90;;;;;;5011003;28;20301;-88
2021/03/19 05:53:52;;;;;;;6.40;2.20;;;3.10;99.90;;;;;;5016789;28;20293;-89
2021/03/19 05:56:24;;;;;;;0.73;0.73;;;3.50;99.90;;;;;;5030028;28;20221;-90
2021/03/19 05:58:50;;;;;;;1.53;1.43;;;3.80;99.90;;;;;;5047875;28;20186;-89
2021/03/19 06:01:16;;;;;;;1.10;1.10;;;4.30;99.90;;;;;;4996636;28;20228;-90
2021/03/19 06:03:44;;;;;;;1.63;1.27;;;4.70;99.90;;;;;;5012978;28;20249;-91
2021/03/19 06:06:11;;;;;;;2.20;1.77;;;5.10;99.90;;;;;;4997778;28;20583;-90
2021/03/19 06:08:40;;;;;;;1.17;0.73;;;5.80;99.90;;;;;;5028947;28;20244;-89
2021/03/19 06:11:20;;;;;;;1.30;1.20;;;6.30;99.90;;;;;;5029270;28;20549;-90
2021/03/19 06:14:14;;;;;;;2.47;1.90;;;6.20;99.90;;;;;;5048401;28;20232;-90
2021/03/19 06:16:42;;;;;;;0.60;0.60;;;6.10;99.90;;;;;;4996431;28;20744;-90
2021/03/19 06:19:27;;;;;;;0.40;0.40;;;6.60;99.90;;;;;;5027446;28;20268;-91
2021/03/19 06:22:25;;;;;;;1.13;0.83;;;6.60;99.90;;;;;;5013637;28;20530;-91
2021/03/19 06:25:03;;;;;;;0.80;0.80;;;6.90;99.90;;;;;;5009320;28;20214;-88
2021/03/19 06:27:46;;;;;;;1.60;1.27;;;7.40;99.90;;;;;;5029421;28;20225;-91
2021/03/19 06:30:20;;;;;;;0.63;0.63;;;7.70;99.90;;;;;;5028906;28;20221;-90
2021/03/19 06:33:12;;;;;;;1.07;1.07;;;8.10;99.90;;;;;;5028101;28;20240;-90
2021/03/19 06:35:40;;;;;;;0.37;0.37;;;8.50;99.90;;;;;;5046226;28;20229;-91
2021/03/19 06:38:28;;;;;;;2.37;1.27;;;8.70;99.90;;;;;;5028773;28;20218;-91
2021/03/19 06:40:54;;;;;;;1.57;0.77;;;8.80;99.90;;;;;;5029856;28;20247;-91
2021/03/19 06:43:29;;;;;;;0.80;0.80;;;9.30;99.90;;;;;;5012203;28;20210;-90
2021/03/19 06:46:18;;;;;;;1.70;0.80;;;10.80;99.90;;;;;;5028060;28;20228;-90
2021/03/19 06:49:01;;;;;;;0.90;0.67;;;11.80;99.90;;;;;;5028339;28;20210;-91
2021/03/19 06:51:30;;;;;;;5.53;1.53;;;13.00;99.90;;;;;;5028514;28;20222;-92
2021/03/19 06:54:05;;;;;;;5.80;2.43;;;13.90;99.90;;;;;;5029094;28;20228;-91
2021/03/19 06:56:32;;;;;;;1.47;0.80;;;13.60;99.90;;;;;;5040059;28;20230;-91
2021/03/19 06:58:58;;;;;;;2.43;1.70;;;13.60;99.90;;;;;;4993564;28;20187;-91
2021/03/19 07:01:23;;;;;;;0.70;0.70;;;14.50;99.90;;;;;;5028395;28;20205;-92
2021/03/19 07:03:58;;;;;;;2.00;0.70;;;13.90;99.90;;;;;;5013307;28;20753;-91
2021/03/19 07:06:49;;;;;;;1.10;1.00;;;13.20;99.90;;;;;;5019937;28;20230;-90
2021/03/19 07:09:30;;;;;;;4.67;1.53;;;14.30;99.90;;;;;;5027182;28;20230;-90
2021/03/19 07:12:14;;;;;;;0.87;0.87;;;14.70;99.90;;;;;;5027440;28;20240;-87
2021/03/19 07:15:15;;;;;;;1.37;0.90;;;14.80;99.90;;;;;;5026994;28;20279;-88
2021/03/19 07:17:52;;;;;;;4.00;1.90;;;14.60;99.90;;;;;;5027722;28;20343;-89
2021/03/19 07:20:27;;;;;;;0.90;0.80;;;15.20;99.90;;;;;;5026844;28;20712;-86
2021/03/19 07:23:18;;;;;;;1.33;1.10;;;15.60;99.90;;;;;;5027380;28;20178;-88
2021/03/19 07:26:16;;;;;;;2.27;1.13;;;16.00;99.90;;;;;;4988609;28;20311;-86
2021/03/19 07:28:47;;;;;;;2.27;1.20;;;15.60;99.90;;;;;;5026663;28;20329;-86
2021/03/19 07:31:37;;;;;;;3.23;0.90;;;15.30;99.90;;;;;;5026916;28;20213;-83
2021/03/19 07:34:34;;;;;;;4.23;0.97;;;14.20;99.90;;;;;;5026595;28;20217;-85
2021/03/19 07:37:20;;;;;;;2.27;1.07;;;14.20;99.90;;;;;;5042329;28;20308;-86
2021/03/19 07:40:07;;;;;;;2.23;1.00;;;13.60;99.90;;;;;;5025684;28;20222;-86
2021/03/19 07:43:10;;;;;;;1.33;1.23;;;13.40;99.90;;;;;;5026108;28;20233;-85
2021/03/19 07:45:47;;;;;;;3.10;1.13;;;13.90;99.90;;;;;;5026257;28;20645;-85
2021/03/19 07:48:41;;;;;;;1.77;1.63;;;14.20;99.90;;;;;;5026387;28;20267;-86
2021/03/19 07:51:23;;;;;;;1.50;1.40;;;14.20;99.90;;;;;;5026579;28;20268;-92
2021/03/19 07:54:18;;;;;;;3.97;1.37;;;14.00;99.90;;;;;;5028581;28;20202;-90
2021/03/19 07:57:14;;;;;;;4.70;1.10;;;14.40;99.90;;;;;;5025762;28;20278;-91
2021/03/19 07:59:48;;;;;;;4.30;1.10;;;14.40;99.90;;;;;;5022006;28;20778;-91
2021/03/19 08:02:30;;;;;;;3.17;1.20;;;13.70;99.90;;;;;;5009455;28;20643;-91
2021/03/19 08:05:17;;;;;;;1.80;1.03;;;13.40;99.90;;;;;;5027824;28;20185;-92
2021/03/19 08:08:04;;;;;;;2.40;0.93;;;15.00;99.90;;;;;;5027509;28;20682;-91
2021/03/19 08:10:33;;;;;;;1.37;0.70;;;14.10;99.90;;;;;;5043838;28;20236;-92
2021/03/19 08:13:34;;;;;;;0.60;0.60;;;13.30;99.90;;;;;;5026668;28;20225;-91
2021/03/19 08:16:15;;;;;;;1.77;1.17;;;12.80;99.90;;;;;;5026136;28;21204;-91
2021/03/19 08:18:59;;;;;;;2.60;0.77;;;13.70;99.90;;;;;;5025697;28;20213;-91
2021/03/19 08:21:43;;;;;;;0.97;0.90;;;14.40;99.90;;;;;;5026113;28;20301;-91
2021/03/19 08:24:15;;;;;;;2.17;1.23;;;14.20;99.90;;;;;;5042908;28;20263;-91
2021/03/19 08:26:56;;;;;;;2.70;1.30;;;13.60;99.90;;;;;;5026142;28;20221;-92
2021/03/19 08:29:38;;;;;;;0.73;0.73;;;13.20;99.90;;;;;;5026037;28;20267;-91
2021/03/19 08:32:25;;;;;;;1.50;1.13;;;12.90;99.90;;;;;;5025163;28;20196;-91
2021/03/19 08:34:57;;;;;;;1.60;1.30;;;13.20;99.90;;;;;;5007747;28;20183;-91
2021/03/19 08:37:31;;;;;;;2.70;0.90;;;14.00;99.90;;;;;;5025656;28;20239;-91
2021/03/19 08:39:58;;;;;;;4.23;1.40;;;13.60;99.90;;;;;;5026342;28;20909;-91
2021/03/19 08:42:33;;;;;;;0.73;0.60;;;12.70;99.90;;;;;;5026702;28;21165;-92
2021/03/19 08:45:04;;;;;;;0.97;0.83;;;11.00;99.90;;;;;;5026266;28;20202;-91
2021/03/19 08:47:43;;;;;;;3.73;1.63;;;11.00;99.90;;;;;;5026398;28;20218;-91
2021/03/19 08:50:33;;;;;;;3.40;1.47;;;11.00;99.90;;;;;;5042080;28;20182;-91
2021/03/19 08:53:07;;;;;;;3.80;1.30;;;11.10;99.90;;;;;;5006318;28;20202;-91
2021/03/19 08:55:37;;;;;;;5.03;1.17;;;12.30;99.90;;;;;;5007978;28;20186;-91
2021/03/19 08:58:28;;;;;;;1.87;1.20;;;13.20;99.90;;;;;;5007217;28;20209;-91
2021/03/19 09:01:06;;;;;;;1.47;1.03;;;11.30;99.90;;;;;;5042791;28;20206;-91
2021/03/19 09:03:38;;;;;;;1.10;0.97;;;11.10;99.90;;;;;;5025860;28;20217;-91
2021/03/19 09:06:04;;;;;;;3.23;0.77;;;12.20;99.90;;;;;;5026346;28;20213;-91
2021/03/19 09:08:59;;;;;;;3.20;1.00;;;12.50;99.90;;;;;;5026381;28;20248;-91
2021/03/19 09:11:50;;;;;;;1.37;0.70;;;12.00;99.90;;;;;;5026434;28;20213;-91
2021/03/19 09:14:30;;;;;;;4.00;1.60;;;12.50;99.90;;;;;;5026063;28;20202;-91
2021/03/19 09:16:57;;;;;;;3.07;1.50;;;11.30;99.90;;;;;;5027671;28;20214;-92
2021/03/19 09:19:32;;;;;;;1.60;0.93;;;9.30;99.90;;;;;;5006262;28;20679;-92
2021/03/19 09:22:41;;;;;;;0.57;0.40;;;9.10;99.90;;;;;;5007588;28;20232;-91
2021/03/19 09:25:10;;;;;;;1.17;1.07;;;8.30;99.90;;;;;;4982580;28;20237;-91
2021/03/19 09:27:42;;;;;;;1.23;1.13;;;8.00;99.90;;;;;;4997417;28;20242;-92
2021/03/19 09:30:33;;;;;;;3.57;1.10;;;8.10;99.90;;;;;;5003773;28;21087;-91
2021/03/19 09:33:01;;;;;;;0.43;0.43;;;8.20;99.90;;;;;;5002705;28;20204;-92
2021/03/19 09:35:46;;;;;;;1.37;1.10;;;8.30;99.90;;;;;;4970829;28;20228;-91
2021/03/19 09:38:37;;;;;;;4.27;1.77;;;8.30;99.90;;;;;;5019286;28;20211;-91
2021/03/19 09:41:05;;;;;;;2.37;1.03;;;8.30;99.90;;;;;;5009711;28;20652;-91
2021/03/19 09:43:39;;;;;;;1.47;1.07;;;8.40;99.90;;;;;;5004729;28;20187;-91
2021/03/19 09:46:24;;;;;;;1.20;0.70;;;8.50;99.90;;;;;;4985310;28;20314;-92
2021/03/19 09:49:05;;;;;;;0.60;0.60;;;8.90;99.90;;;;;;4999901;28;20305;-91
2021/03/19 09:51:50;;;;;;;2.33;1.73;;;9.40;99.90;;;;;;5006147;28;20214;-93
2021/03/19 09:54:24;;;;;;;3.30;1.17;;;9.40;99.90;;;;;;4991705;28;20318;-89
2021/03/19 09:56:53;;;;;;;1.80;1.50;;;10.30;99.90;;;;;;5006954;28;20216;-93
2021/03/19 09:59:23;;;;;;;0.73;0.73;;;11.00;99.90;;;;;;4992015;28;20227;-92
2021/03/19 10:01:49;;;;;;;0.90;0.90;;;12.00;99.90;;;;;;5006630;28;20172;-91
2021/03/19 10:04:51;;;;;;;2.00;1.73;;;11.80;99.90;;;;;;5006110;28;20219;-91
2021/03/19 10:07:23;;;;;;;3.87;1.37;;;12.30;99.90;;;;;;4946986;28;20312;-91
2021/03/19 10:09:56;;;;;;;2.87;1.40;;;12.00;99.90;;;;;;4993949;28;20216;-91
2021/03/19 10:12:32;;;;;;;1.10;0.77;;;10.90;99.90;;;;;;5006880;28;20225;-93
2021/03/19 10:15:14;;;;;;;8.43;1.43;;;10.90;99.90;;;;;;4998311;28;20214;-91
2021/03/19 10:17:49;;;;;;;1.57;0.77;;;11.40;99.90;;;;;;5006074;28;20308;-93
2021/03/19 10:20:22;;;;;;;1.40;0.90;;;11.90;99.90;;;;;;5006336;28;20279;-92
2021/03/19 10:22:52;;;;;;;2.70;0.90;;;11.80;99.90;;;;;;5006800;28;20187;-92
2021/03/19 10:25:45;;;;;;;0.47;0.47;;;12.20;99.90;;;;;;5011175;28;20234;-92
2021/03/19 10:28:16;;;;;;;0.87;0.87;;;12.00;99.90;;;;;;5005151;28;20748;-92
2021/03/19 10:31:09;;;;;;;0.60;0.60;;;12.30;99.90;;;;;;4991440;28;20248;-93
2021/03/19 10:34:01;;;;;;;1.80;0.80;;;11.50;99.90;;;;;;4988499;28;20294;-93
2021/03/19 10:36:45;;;;;;;3.30;0.70;;;11.10;99.90;;;;;;4985934;28;20216;-92
2021/03/19 10:39:30;;;;;;;3.80;1.60;;;10.30;99.90;;;;;;4976273;28;20216;-91
2021/03/19 10:42:08;;;;;;;0.73;0.70;;;11.10;99.90;;;;;;4994425;28;20285;-94
2021/03/19 10:44:44;;;;;;;0.97;0.87;;;11.90;99.90;;;;;;5000526;28;20231;-92
2021/03/19 10:47:23;;;;;;;1.57;1.00;;;11.80;99.90;;;;;;4981122;28;20184;-92
2021/03/19 10:50:00;;;;;;;1.57;0.87;;;11.20;99.90;;;;;;4989578;28;20183;-92
2021/03/19 10:52:40;;;;;;;1.90;1.00;;;12.00;99.90;;;;;;5005225;28;20226;-93
2021/03/19 10:55:47;;;;;;;1.60;0.70;;;12.20;99.90;;;;;;5004814;28;20269;-92
2021/03/19 10:58:22;;;;;;;0.87;0.60;;;12.90;99.90;;;;;;4930552;29;20891;-92
2021/03/19 11:00:50;;;;;;;1.07;0.73;;;12.70;99.90;;;;;;4929751;29;20216;-92
2021/03/19 11:03:45;;;;;;;1.37;0.63;;;12.00;99.90;;;;;;4970440;28;20216;-92
2021/03/19 11:06:26;;;;;;;0.43;0.43;;;11.90;99.90;;;;;;4999593;28;20226;-92
2021/03/19 11:09:05;;;;;;;0.90;0.67;;;11.80;99.90;;;;;;5022188;28;20265;-91
2021/03/19 11:11:31;;;;;;;0.67;0.63;;;12.00;99.90;;;;;;5000499;28;20215;-92
2021/03/19 11:14:06;;;;;;;0.70;0.60;;;11.90;99.90;;;;;;4979185;28;20264;-92
2021/03/19 11:16:39;;;;;;;1.70;1.00;;;12.00;99.90;;;;;;5003051;28;20657;-93
2021/03/19 11:19:12;;;;;;;1.13;0.50;;;12.00;99.90;;;;;;5005296;28;20249;-93
2021/03/19 11:21:41;;;;;;;0.50;0.50;;;11.90;99.90;;;;;;5023024;28;20555;-93
2021/03/19 11:24:32;;;;;;;1.20;0.60;;;11.90;99.90;;;;;;4989649;28;20221;-94
2021/03/19 11:27:01;;;;;;;0.23;0.23;;;11.90;99.90;;;;;;5023958;28;20233;-92
2021/03/19 11:29:30;;;;;;;2.40;0.27;;;11.60;99.90;;;;;;5005106;28;20227;-92
2021/03/19 11:32:03;;;;;;;0.37;0.33;;;11.20;99.90;;;;;;5004625;28;20702;-92
2021/03/19 11:34:41;;;;;;;0.30;0.30;;;10.90;99.90;;;;;;5005262;28;20879;-93
2021/03/19 11:37:14;;;;;;;0.30;0.30;;;10.70;99.90;;;;;;5003719;28;20219;-93
2021/03/19 11:39:59;;;;;;;1.00;0.33;;;10.80;99.90;;;;;;4990605;28;20712;-92
2021/03/19 11:42:45;;;;;;;4.00;0.40;;;10.70;99.90;;;;;;4996542;28;20222;-91
2021/03/19 11:45:17;;;;;;;0.50;0.50;;;10.30;99.90;;;;;;5004553;28;20225;-93
2021/03/19 11:47:48;;;;;;;1.97;0.83;;;10.30;99.90;;;;;;5005199;28;20295;-94
2021/03/19 11:50:17;;;;;;;0.20;0.20;;;10.30;99.90;;;;;;5004183;28;20183;-93
2021/03/19 11:52:45;;;;;;;0.30;0.30;;;10.10;99.90;;;;;;5004838;28;20211;-92
2021/03/19 11:55:20;;;;;;;0.23;0.23;;;10.30;99.90;;;;;;5021367;28;20302;-91
2021/03/19 11:57:47;;;;;;;0.20;0.20;;;10.20;99.90;;;;;;5007077;28;20228;-94
2021/03/19 12:00:18;;;;;;;0.90;0.50;;;9.80;99.90;;;;;;4983376;28;20222;-94
2021/03/19 12:02:44;;;;;;;0.30;0.30;;;9.60;99.90;;;;;;4985838;28;20230;-93
2021/03/19 12:05:13;;;;;;;0.30;0.30;;;9.50;99.90;;;;;;4970001;28;20175;-94
2021/03/19 12:07:41;;;;;;;0.27;0.27;;;9.60;99.90;;;;;;4997935;28;20192;-95
2021/03/19 12:10:08;;;;;;;0.10;0.10;;;9.70;99.90;;;;;;4967478;28;20219;-95
2021/03/19 12:12:35;;;;;;;0.20;0.20;;;9.80;99.90;;;;;;4992624;28;20218;-93
2021/03/19 12:15:04;;;;;;;0.20;0.20;;;9.70;99.90;;;;;;5014958;28;20226;-95
2021/03/19 12:17:30;;;;;;;0.20;0.20;;;9.80;99.90;;;;;;5006943;28;20318;-93
2021/03/19 12:19:56;;;;;;;0.30;0.30;;;9.70;99.90;;;;;;4987952;28;20299;-93
2021/03/19 12:22:22;;;;;;;0.20;0.20;;;9.40;99.90;;;;;;4990195;28;20216;-94
2021/03/19 12:24:47;;;;;;;0.10;0.10;;;9.30;99.90;;;;;;4973169;28;20644;-94
2021/03/19 12:27:14;;;;;;;0.30;0.30;;;9.20;99.90;;;;;;5000595;28;20222;-92
2021/03/19 12:29:40;;;;;;;0.10;0.10;;;9.10;99.90;;;;;;5008811;28;20302;-92
2021/03/19 12:32:07;;;;;;;1.20;0.50;;;8.90;99.90;;;;;;5008791;28;20197;-92
2021/03/19 12:34:33;;;;;;;0.30;0.30;;;9.20;99.90;;;;;;5011216;28;20617;-92
2021/03/19 12:37:00;;;;;;;0.20;0.20;;;9.30;99.90;;;;;;5025182;28;20575;-92
2021/03/19 12:39:26;;;;;;;0.10;0.10;;;8.90;99.90;;;;;;5009273;28;20667;-92
2021/03/19 12:41:52;;;;;;;0.20;0.20;;;8.90;99.90;;;;;;5025784;28;20306;-91
2021/03/19 12:44:18;;;;;;;0.30;0.30;;;8.80;99.90;;;;;;4992382;28;21390;-92
2021/03/19 12:46:44;;;;;;;0.30;0.30;;;8.70;99.90;;;;;;5027464;28;20219;-92
2021/03/19 12:49:10;;;;;;;3.17;0.43;;;8.60;99.90;;;;;;5007788;28;20301;-92
2021/03/19 12:51:36;;;;;;;2.20;1.13;;;8.70;99.90;;;;;;4987841;28;20226;-94
2021/03/19 12:54:03;;;;;;;0.13;0.13;;;8.70;99.90;;;;;;5004377;28;20772;-96
2021/03/19 12:56:31;;;;;;;0.57;0.30;;;8.70;99.90;;;;;;4995718;28;20309;-94
2021/03/19 12:58:57;;;;;;;0.30;0.30;;;8.40;99.90;;;;;;5034653;28;20163;-95
2021/03/19 13:01:26;;;;;;;0.20;0.20;;;8.30;99.90;;;;;;5039559;28;20226;-93
2021/03/19 13:03:58;;;;;;;0.20;0.20;;;8.30;99.90;;;;;;5019226;28;20296;-96
2021/03/19 13:06:24;;;;;;;0.43;0.43;;;8.60;99.90;;;;;;5024502;28;20223;-92
2021/03/19 13:08:51;;;;;;;0.20;0.20;;;8.70;99.90;;;;;;5024634;28;20697;-93
2021/03/19 13:11:22;;;;;;;0.50;0.50;;;8.70;99.90;;;;;;5025735;28;22913;-95
2021/03/19 13:13:48;;;;;;;0.40;0.40;;;8.60;99.90;;;;;;5004111;28;20277;-94
2021/03/19 13:16:14;;;;;;;0.20;0.20;;;8.70;99.90;;;;;;5009574;28;20218;-95
2021/03/19 13:18:40;;;;;;;0.33;0.20;;;8.80;99.90;;;;;;5022734;28;20333;-94
2021/03/19 13:21:07;;;;;;;0.20;0.20;;;8.80;99.90;;;;;;5014093;28;20246;-92
2021/03/19 13:23:33;;;;;;;1.03;0.37;;;8.70;99.90;;;;;;4988572;28;20215;-94
2021/03/19 13:25:59;;;;;;;0.57;0.43;;;8.80;99.90;;;;;;5008256;28;20551;-95
2021/03/19 13:28:26;;;;;;;1.07;1.00;;;8.80;99.90;;;;;;4999133;28;20735;-94